createdAt,value
2022-08-09T00:00:21.187Z,21.95
2022-08-09T00:02:51.884Z,18.13
2022-08-09T00:06:15.395Z,18.38
2022-08-09T00:08:32.102Z,14.93
2022-08-09T00:11:06.046Z,18.75
2022-08-09T00:13:55.779Z,15.00
2022-08-09T00:16:36.664Z,11.38
2022-08-09T00:19:10.368Z,22.45
2022-08-09T00:21:55.635Z,18.30
2022-08-09T00:24:28.410Z,15.38
2022-08-09T00:26:59.806Z,13.35
2022-08-09T00:29:39.934Z,13.73
2022-08-09T00:32:35.799Z,12.77
2022-08-09T00:35:07.613Z,22.10
2022-08-09T00:37:38.235Z,17.02
2022-08-09T00:40:16.390Z,13.68
2022-08-09T00:44:27.383Z,17.38
2022-08-09T00:45:38.866Z,18.90
2022-08-09T00:48:21.341Z,17.15
2022-08-09T00:50:53.215Z,15.10
2022-08-09T00:53:24.659Z,17.75
2022-08-09T00:56:04.059Z,11.65
2022-08-09T00:58:39.876Z,12.70
2022-08-09T01:01:23.589Z,17.73
2022-08-09T01:04:05.658Z,18.92
2022-08-09T01:07:37.740Z,16.48
2022-08-09T01:10:31.579Z,17.38
2022-08-09T01:13:41.789Z,22.08
2022-08-09T01:16:27.262Z,19.17
2022-08-09T01:19:05.159Z,13.13
2022-08-09T01:21:45.053Z,17.30
2022-08-09T01:24:34.029Z,13.30
2022-08-09T01:27:13.328Z,16.00
2022-08-09T01:30:03.503Z,19.58
2022-08-09T01:32:45.515Z,11.95
2022-08-09T01:35:37.284Z,16.25
2022-08-09T01:38:17.838Z,12.43
2022-08-09T01:41:25.853Z,16.08
2022-08-09T01:43:59.067Z,12.75
2022-08-09T01:46:42.863Z,15.90
2022-08-09T01:49:24.086Z,13.02
2022-08-09T01:52:08.110Z,9.02
2022-08-09T01:54:53.099Z,11.80
2022-08-09T01:57:45.932Z,11.02
2022-08-09T02:00:35.774Z,16.38
2022-08-09T02:03:10.677Z,16.02
2022-08-09T02:06:03.586Z,13.77
2022-08-09T02:08:57.725Z,11.10
2022-08-09T02:11:42.869Z,14.48
2022-08-09T02:14:26.585Z,11.98
2022-08-09T02:17:29.365Z,12.77
2022-08-09T02:19:51.445Z,13.48
2022-08-09T02:22:49.701Z,9.35
2022-08-09T02:25:24.064Z,14.30
2022-08-09T02:28:24.262Z,10.25
2022-08-09T02:31:01.583Z,18.02
2022-08-09T02:33:58.361Z,19.48
2022-08-09T02:36:44.078Z,11.30
2022-08-09T02:39:33.390Z,15.13
2022-08-09T02:42:29.485Z,20.55
2022-08-09T02:45:10.550Z,16.00
2022-08-09T02:47:57.771Z,19.05
2022-08-09T02:50:44.570Z,18.35
2022-08-09T02:53:34.349Z,19.27
2022-08-09T02:56:06.895Z,24.85
2022-08-09T02:58:38.801Z,18.90
2022-08-09T03:01:15.166Z,18.80
2022-08-09T03:04:17.660Z,18.80
2022-08-09T03:06:48.857Z,17.75
2022-08-09T03:09:22.379Z,13.43
2022-08-09T03:12:09.780Z,27.55
2022-08-09T03:14:43.953Z,22.45
2022-08-09T03:17:26.367Z,25.77
2022-08-09T03:20:10.708Z,22.52
2022-08-09T03:25:57.870Z,23.08
2022-08-09T03:28:30.964Z,24.75
2022-08-09T03:31:06.572Z,28.55
2022-08-09T03:33:53.399Z,25.08
2022-08-09T03:36:27.784Z,26.58
2022-08-09T03:38:59.255Z,26.92
2022-08-09T03:41:45.772Z,25.63
2022-08-09T03:46:50.497Z,23.45
2022-08-09T03:49:24.050Z,24.00
2022-08-09T03:52:03.480Z,24.88
2022-08-09T03:54:40.126Z,25.38
2022-08-09T03:57:20.268Z,27.30
2022-08-09T04:00:00.473Z,23.27
2022-08-09T04:02:34.614Z,27.27
2022-08-09T04:05:17.103Z,17.88
2022-08-09T04:07:57.921Z,7.90
2022-08-09T04:10:30.437Z,9.52
2022-08-09T04:13:11.797Z,16.60
2022-08-09T04:16:20.292Z,15.02
2022-08-09T04:18:32.869Z,12.23
2022-08-09T04:21:03.996Z,12.15
2022-08-09T04:23:34.388Z,8.60
2022-08-09T04:26:04.786Z,9.23
2022-08-09T04:28:36.570Z,6.13
2022-08-09T04:31:13.395Z,12.52
2022-08-09T04:33:52.157Z,10.10
2022-08-09T04:36:29.445Z,9.48
2022-08-09T04:39:05.650Z,12.85
2022-08-09T04:41:43.471Z,14.48
2022-08-09T04:44:14.964Z,6.65
2022-08-09T04:46:58.287Z,9.65
2022-08-09T04:49:53.577Z,9.68
2022-08-09T04:52:27.840Z,8.80
2022-08-09T04:55:00.017Z,9.77
2022-08-09T04:57:54.176Z,10.05
2022-08-09T05:00:23.923Z,10.93
2022-08-09T05:02:54.513Z,19.95
2022-08-09T05:05:31.769Z,15.90
2022-08-09T05:08:16.321Z,17.05
2022-08-09T05:10:47.975Z,15.02
2022-08-09T05:13:18.751Z,18.55
2022-08-09T05:15:52.309Z,16.38
2022-08-09T05:18:42.788Z,17.08
2022-08-09T05:21:24.875Z,11.88
2022-08-09T05:24:02.367Z,12.80
2022-08-09T05:26:37.145Z,13.93
2022-08-09T05:29:22.696Z,10.25
2022-08-09T05:31:58.581Z,9.90
2022-08-09T05:34:33.467Z,10.80
2022-08-09T05:37:07.252Z,10.93
2022-08-09T05:39:44.537Z,11.90
2022-08-09T05:42:17.854Z,14.63
2022-08-09T05:45:04.529Z,11.85
2022-08-09T05:47:35.937Z,12.88
2022-08-09T05:50:35.145Z,6.50
2022-08-09T05:53:31.748Z,14.13
2022-08-09T05:56:02.208Z,11.30
2022-08-09T05:58:32.903Z,12.38
2022-08-09T06:01:03.302Z,9.35
2022-08-09T06:03:34.727Z,11.75
2022-08-09T06:06:14.355Z,11.55
2022-08-09T06:08:44.778Z,13.82
2022-08-09T06:11:40.546Z,17.25
2022-08-09T06:14:11.976Z,7.95
2022-08-09T06:16:42.486Z,13.75
2022-08-09T06:19:22.773Z,11.10
2022-08-09T06:21:58.398Z,14.65
2022-08-09T06:24:30.051Z,25.13
2022-08-09T06:27:01.639Z,17.88
2022-08-09T06:29:32.237Z,14.38
2022-08-09T06:32:53.509Z,11.20
2022-08-09T06:35:09.685Z,12.38
2022-08-09T06:38:05.379Z,7.35
2022-08-09T06:40:42.280Z,13.02
2022-08-09T06:43:15.483Z,8.60
2022-08-09T06:46:05.040Z,8.38
2022-08-09T06:48:36.915Z,9.60
2022-08-09T06:51:14.818Z,12.02
2022-08-09T06:53:47.075Z,9.05
2022-08-09T06:56:20.482Z,8.98
2022-08-09T07:00:55.528Z,7.65
2022-08-09T07:01:54.041Z,8.32
2022-08-09T07:04:28.428Z,4.63
2022-08-09T07:06:59.883Z,6.63
2022-08-09T07:09:56.050Z,3.67
2022-08-09T07:12:22.645Z,4.35
2022-08-09T07:16:36.738Z,4.68
2022-08-09T07:18:03.267Z,8.90
2022-08-09T07:20:33.930Z,8.88
2022-08-09T07:23:18.279Z,11.15
2022-08-09T07:25:52.626Z,4.55
2022-08-09T07:28:34.845Z,8.93
2022-08-09T07:31:07.077Z,6.93
2022-08-09T07:33:53.081Z,5.47
2022-08-09T07:36:26.247Z,10.48
2022-08-09T07:39:01.025Z,5.65
2022-08-09T07:41:33.024Z,6.90
2022-08-09T07:44:09.335Z,7.93
2022-08-09T07:46:42.348Z,10.00
2022-08-09T07:49:15.355Z,6.72
2022-08-09T07:52:05.548Z,7.05
2022-08-09T07:54:36.528Z,8.10
2022-08-09T07:57:11.830Z,7.22
2022-08-09T07:59:51.993Z,10.20
2022-08-09T08:02:29.701Z,9.00
2022-08-09T08:05:00.397Z,10.20
2022-08-09T08:08:44.698Z,10.88
2022-08-09T08:10:22.638Z,14.77
2022-08-09T08:12:57.844Z,6.65
2022-08-09T08:15:28.510Z,7.32
2022-08-09T08:17:59.202Z,12.88
2022-08-09T08:20:33.656Z,5.50
2022-08-09T08:23:15.956Z,7.78
2022-08-09T08:25:50.226Z,11.77
2022-08-09T08:28:36.938Z,14.70
2022-08-09T08:31:14.861Z,8.30
2022-08-09T08:33:52.314Z,7.07
2022-08-09T08:36:29.579Z,8.52
2022-08-09T08:39:02.871Z,5.78
2022-08-09T08:41:50.606Z,8.57
2022-08-09T08:44:28.934Z,9.07
2022-08-09T08:47:04.440Z,7.18
2022-08-09T08:49:48.599Z,5.80
2022-08-09T08:55:15.359Z,9.05
2022-08-09T08:57:56.420Z,10.35
2022-08-09T09:00:34.194Z,6.95
2022-08-09T09:03:11.233Z,8.48
2022-08-09T09:05:58.743Z,9.43
2022-08-09T09:08:40.428Z,8.48
2022-08-09T09:11:19.804Z,7.90
2022-08-09T09:13:57.451Z,11.10
2022-08-09T09:16:34.508Z,4.22
2022-08-09T09:19:40.795Z,8.70
2022-08-09T09:22:16.320Z,4.70
2022-08-09T09:24:53.181Z,13.18
2022-08-09T09:28:06.448Z,7.68
2022-08-09T09:30:40.097Z,7.85
2022-08-09T09:33:17.269Z,15.82
2022-08-09T09:36:19.869Z,8.55
2022-08-09T09:38:59.050Z,3.42
2022-08-09T09:41:33.513Z,8.60
2022-08-09T09:44:34.886Z,11.07
2022-08-09T09:47:21.573Z,9.43
2022-08-09T09:50:15.646Z,6.22
2022-08-09T09:52:58.362Z,7.63
2022-08-09T09:55:33.173Z,7.15
2022-08-09T09:58:17.186Z,10.55
2022-08-09T10:00:55.276Z,4.45
2022-08-09T10:04:08.869Z,5.90
2022-08-09T10:06:51.645Z,13.77
2022-08-09T10:09:27.079Z,4.88
2022-08-09T10:12:14.355Z,5.97
2022-08-09T10:14:53.195Z,9.35
2022-08-09T10:17:50.992Z,5.70
2022-08-09T10:20:27.824Z,18.42
2022-08-09T10:23:20.452Z,5.68
2022-08-09T10:26:06.375Z,3.47
2022-08-09T10:28:41.144Z,6.28
2022-08-09T10:34:10.634Z,6.97
2022-08-09T10:36:59.824Z,7.88
2022-08-09T11:14:37.877Z,13.45
2022-08-09T11:17:28.321Z,10.80
2022-08-09T11:20:22.506Z,12.07
2022-08-09T11:22:56.782Z,6.38
2022-08-09T11:25:36.125Z,10.25
2022-08-09T11:28:38.709Z,10.55
2022-08-09T11:34:51.601Z,11.13
2022-08-09T11:37:40.609Z,12.40
2022-08-09T11:40:17.830Z,11.70
2022-08-09T11:42:54.830Z,7.95
2022-08-09T11:45:42.998Z,11.10
2022-08-09T11:48:24.969Z,12.48
2022-08-09T11:52:57.121Z,8.77
2022-08-09T11:54:29.032Z,9.32
2022-08-09T12:00:16.275Z,11.07
2022-08-09T12:02:52.592Z,12.68
2022-08-09T12:05:24.811Z,7.72
2022-08-09T12:07:56.739Z,12.80
2022-08-09T12:10:38.763Z,9.32
2022-08-09T12:14:07.133Z,16.58
2022-08-09T12:16:18.778Z,12.88
2022-08-09T12:19:01.934Z,14.15
2022-08-09T12:21:38.418Z,17.05
2022-08-09T12:24:11.664Z,10.80
2022-08-09T12:29:10.360Z,16.73
2022-08-09T12:29:44.751Z,11.65
2022-08-09T12:32:30.413Z,9.15
2022-08-09T12:35:10.825Z,12.55
2022-08-09T12:37:50.528Z,10.40
2022-08-09T12:40:24.756Z,9.90
2022-08-09T12:42:56.277Z,6.25
2022-08-09T12:45:33.451Z,8.55
2022-08-09T12:48:19.834Z,11.95
2022-08-09T12:51:03.838Z,7.47
2022-08-09T12:53:44.623Z,11.38
2022-08-09T12:56:39.211Z,13.20
2022-08-09T12:59:14.481Z,10.20
2022-08-09T13:01:51.139Z,6.60
2022-08-09T13:04:36.107Z,20.70
2022-08-09T13:07:19.899Z,12.07
2022-08-09T13:10:07.990Z,13.95
2022-08-09T13:13:09.781Z,12.55
2022-08-09T13:16:04.325Z,12.13
2022-08-09T13:18:56.060Z,12.82
2022-08-09T13:22:37.482Z,12.13
2022-08-09T13:24:33.224Z,13.93
2022-08-09T13:27:39.687Z,10.82
2022-08-09T13:30:50.194Z,12.80
2022-08-09T13:33:51.687Z,15.60
2022-08-09T13:36:37.502Z,10.77
2022-08-09T13:41:17.537Z,9.73
2022-08-09T13:42:03.294Z,11.70
2022-08-09T13:44:35.076Z,13.77
2022-08-09T13:47:29.586Z,14.07
2022-08-09T13:50:00.912Z,12.35
2022-08-09T13:52:36.170Z,16.10
2022-08-09T13:55:13.688Z,16.35
2022-08-09T13:57:56.324Z,15.02
2022-08-09T14:00:31.213Z,13.15
2022-08-09T14:03:17.081Z,17.92
2022-08-09T14:05:56.640Z,14.95
2022-08-09T14:08:32.950Z,10.05
2022-08-09T14:11:03.500Z,12.55
2022-08-09T14:14:22.450Z,10.25
2022-08-09T14:16:37.804Z,10.80
2022-08-09T14:19:11.328Z,9.05
2022-08-09T14:21:41.727Z,11.35
2022-08-09T14:24:18.673Z,10.10
2022-08-09T14:27:03.183Z,10.15
2022-08-09T14:30:36.256Z,10.50
2022-08-09T14:32:41.549Z,7.22
2022-08-09T14:35:12.646Z,7.72
2022-08-09T14:38:02.799Z,12.43
2022-08-09T14:41:01.130Z,14.65
2022-08-09T14:43:25.696Z,9.18
2022-08-09T14:46:58.976Z,11.68
2022-08-09T14:49:10.588Z,8.98
2022-08-09T14:51:42.184Z,7.93
2022-08-09T14:54:15.055Z,7.20
2022-08-09T14:56:57.923Z,14.68
2022-08-09T14:59:31.986Z,12.77
2022-08-09T15:04:42.892Z,9.07
2022-08-09T15:07:13.784Z,10.27
2022-08-09T15:10:04.635Z,9.18
2022-08-09T15:12:38.783Z,5.97
2022-08-09T15:15:15.820Z,7.65
2022-08-09T15:17:51.528Z,6.88
2022-08-09T15:21:55.665Z,8.68
2022-08-09T15:24:01.407Z,17.05
2022-08-09T15:26:07.455Z,6.18
2022-08-09T15:28:55.097Z,7.15
2022-08-09T15:31:28.463Z,7.30
2022-08-09T15:34:33.506Z,8.55
2022-08-09T15:37:04.340Z,7.75
2022-08-09T15:39:53.238Z,12.50
2022-08-09T15:42:25.650Z,6.43
2022-08-09T15:45:00.306Z,12.15
2022-08-09T15:47:51.546Z,5.30
2022-08-09T15:50:28.875Z,8.35
2022-08-09T15:53:05.981Z,9.68
2022-08-09T15:56:11.066Z,10.95
2022-08-09T15:58:28.022Z,6.10
2022-08-09T16:00:59.218Z,6.95
2022-08-09T16:03:38.782Z,7.85
2022-08-09T16:06:32.414Z,5.20
2022-08-09T16:09:04.986Z,7.00
2022-08-09T16:11:35.883Z,11.18
2022-08-09T16:14:08.570Z,8.35
2022-08-09T16:16:45.749Z,7.88
2022-08-09T16:19:19.686Z,10.13
2022-08-09T16:21:53.791Z,12.18
2022-08-09T16:24:32.865Z,12.52
2022-08-09T16:27:05.734Z,18.25
2022-08-09T16:29:49.652Z,11.30
2022-08-09T16:32:34.424Z,11.77
2022-08-09T16:35:07.260Z,13.35
2022-08-09T16:37:55.765Z,10.55
2022-08-09T16:40:40.795Z,9.07
2022-08-09T16:43:12.154Z,12.02
2022-08-09T16:45:45.307Z,8.10
2022-08-09T16:48:40.667Z,11.57
2022-08-09T16:51:08.406Z,11.63
2022-08-09T16:54:02.489Z,14.82
2022-08-09T16:56:31.593Z,12.00
2022-08-09T16:59:06.746Z,12.80
2022-08-09T17:01:43.877Z,13.27
2022-08-09T17:08:43.877Z,13.57
2022-08-09T17:09:53.604Z,13.95
2022-08-09T17:12:32.941Z,12.13
2022-08-09T17:15:30.739Z,10.93
2022-08-09T17:18:00.709Z,12.77
2022-08-09T17:20:36.969Z,8.88
2022-08-09T17:23:14.720Z,14.40
2022-08-09T17:25:53.067Z,12.45
2022-08-09T17:28:23.870Z,8.80
2022-08-09T17:30:54.393Z,9.65
2022-08-09T17:33:25.701Z,8.63
2022-08-09T17:35:58.832Z,7.00
2022-08-09T17:38:37.134Z,15.27
2022-08-09T17:41:09.736Z,8.02
2022-08-09T17:43:40.571Z,8.30
2022-08-09T17:46:11.470Z,9.05
2022-08-09T17:48:51.824Z,8.13
2022-08-09T17:51:23.705Z,6.45
2022-08-09T17:53:55.965Z,8.85
2022-08-09T17:56:32.492Z,5.88
2022-08-09T17:59:09.212Z,5.90
2022-08-09T18:02:07.936Z,7.53
2022-08-09T18:04:31.563Z,9.10
2022-08-09T18:07:07.547Z,8.32
2022-08-09T18:09:41.348Z,10.20
2022-08-09T18:12:19.863Z,10.82
2022-08-09T18:14:55.227Z,12.90
2022-08-09T18:18:02.906Z,15.50
2022-08-09T18:20:54.930Z,12.50
2022-08-09T18:24:11.736Z,11.95
2022-08-09T18:26:00.650Z,11.02
2022-08-09T18:30:40.108Z,12.38
2022-08-09T18:31:32.507Z,11.73
2022-08-09T18:34:14.225Z,11.32
2022-08-09T18:36:49.583Z,9.95
2022-08-09T18:39:20.123Z,10.35
2022-08-09T18:41:53.874Z,7.45
2022-08-09T18:44:26.824Z,8.30
2022-08-09T18:47:08.248Z,7.45
2022-08-09T18:49:46.539Z,6.57
2022-08-09T18:52:28.537Z,6.38
2022-08-09T18:55:13.722Z,10.27
2022-08-09T18:57:46.145Z,5.50
2022-08-09T19:00:20.349Z,5.93
2022-08-09T19:02:53.941Z,4.75
2022-08-09T19:05:28.736Z,4.32
2022-08-09T19:08:18.598Z,4.45
2022-08-09T19:10:50.834Z,3.95
2022-08-09T19:13:38.439Z,3.50
2022-08-09T19:16:20.875Z,2.45
2022-08-09T19:18:51.949Z,2.67
2022-08-09T19:21:51.675Z,2.35
2022-08-09T19:24:32.797Z,4.57
2022-08-09T19:27:04.552Z,5.43
2022-08-09T19:29:38.202Z,4.57
2022-08-09T19:32:29.646Z,4.32
2022-08-09T19:35:02.284Z,4.35
2022-08-09T19:37:41.225Z,5.78
2022-08-09T19:40:23.545Z,6.43
2022-08-09T19:43:05.202Z,6.45
2022-08-09T19:45:40.393Z,9.75
2022-08-09T19:48:13.621Z,6.68
2022-08-09T19:50:51.050Z,5.97
2022-08-09T19:53:26.368Z,7.47
2022-08-09T19:56:02.725Z,4.40
2022-08-09T19:58:36.936Z,10.80
2022-08-09T20:01:08.491Z,3.72
2022-08-09T20:04:11.439Z,6.78
2022-08-09T20:06:33.336Z,8.55
2022-08-09T20:09:03.697Z,6.60
2022-08-09T20:11:45.161Z,7.65
2022-08-09T20:14:22.422Z,5.35
2022-08-09T20:16:54.533Z,7.30
2022-08-09T20:19:48.352Z,5.72
2022-08-09T20:22:16.514Z,4.20
2022-08-09T20:24:53.745Z,6.07
2022-08-09T20:27:25.064Z,6.22
2022-08-09T20:30:00.850Z,6.32
2022-08-09T20:32:33.701Z,9.35
2022-08-09T20:35:05.701Z,11.80
2022-08-09T20:38:20.616Z,5.80
2022-08-09T20:40:28.353Z,8.40
2022-08-09T20:43:18.644Z,6.55
2022-08-09T20:45:59.668Z,4.28
2022-08-09T20:48:33.514Z,4.03
2022-08-09T20:51:04.066Z,2.88
2022-08-09T20:53:38.621Z,2.58
2022-08-09T20:56:20.753Z,1.98
2022-08-09T20:58:59.065Z,4.03
2022-08-09T21:01:34.560Z,3.67
2022-08-09T21:05:54.546Z,3.65
2022-08-09T21:07:14.058Z,2.95
2022-08-09T21:09:56.784Z,6.00
2022-08-09T21:12:33.557Z,3.05
2022-08-09T21:15:05.814Z,2.78
2022-08-09T21:18:21.577Z,3.20
2022-08-09T21:20:35.733Z,2.50
2022-08-09T21:23:09.126Z,5.80
2022-08-09T21:25:59.775Z,3.50
2022-08-09T21:28:36.289Z,3.45
2022-08-09T21:31:17.803Z,1.05
2022-08-09T21:33:53.034Z,3.28
2022-08-09T21:36:28.947Z,3.95
2022-08-09T21:39:04.933Z,1.27
2022-08-09T21:42:05.974Z,0.90
2022-08-09T21:44:34.209Z,1.98
2022-08-09T21:47:10.775Z,4.57
2022-08-09T21:49:51.612Z,1.95
2022-08-09T21:52:23.522Z,2.30
2022-08-09T21:55:04.034Z,2.13
2022-08-09T21:57:58.994Z,1.52
2022-08-09T22:00:32.693Z,4.45
2022-08-09T22:03:19.160Z,3.25
2022-08-09T22:05:51.357Z,2.22
2022-08-09T22:08:23.094Z,4.10
2022-08-09T22:11:48.842Z,1.75
2022-08-09T22:13:47.985Z,2.42
2022-08-09T22:16:20.497Z,1.80
2022-08-09T22:18:54.081Z,1.70
2022-08-09T22:21:50.280Z,6.40
2022-08-09T22:24:24.100Z,1.55
2022-08-09T22:26:56.400Z,1.52
2022-08-09T22:29:34.471Z,6.53
2022-08-09T22:32:29.905Z,3.05
2022-08-09T22:35:05.864Z,2.63
2022-08-09T22:37:40.421Z,2.13
2022-08-09T22:40:20.008Z,1.58
2022-08-09T22:42:50.865Z,2.78
2022-08-09T22:48:16.424Z,3.38
2022-08-09T22:48:34.971Z,1.40
2022-08-09T22:51:01.709Z,3.35
2022-08-09T22:53:58.663Z,4.22
2022-08-09T22:56:33.847Z,2.75
2022-08-09T22:59:55.215Z,1.52
2022-08-09T23:01:56.762Z,3.40
2022-08-09T23:04:27.456Z,1.95
2022-08-09T23:08:21.038Z,2.60
2022-08-09T23:10:11.982Z,3.03
2022-08-09T23:12:42.337Z,2.83
2022-08-09T23:15:13.098Z,5.40
2022-08-09T23:17:43.452Z,3.20
2022-08-09T23:20:14.035Z,4.60
2022-08-09T23:22:44.534Z,4.38
2022-08-09T23:25:15.103Z,9.98
2022-08-09T23:28:00.544Z,5.50
2022-08-09T23:30:36.866Z,3.47
2022-08-09T23:33:07.213Z,3.80
2022-08-09T23:36:04.716Z,8.38
2022-08-09T23:38:28.012Z,2.47
2022-08-09T23:40:58.541Z,4.30
2022-08-09T23:43:28.878Z,2.80
2022-08-09T23:46:38.885Z,3.70
2022-08-09T23:51:39.067Z,3.03
2022-08-09T23:54:09.716Z,6.70
2022-08-09T23:56:54.440Z,8.52
2022-08-09T23:59:26.781Z,6.15
